Terminal Aerodrome Forecast
Issued by NWS Portland, ME

Current Version | Previous Version | Text Only | Print | Product List | Glossary On
Versions: 1 2 3 4 5 6 7 8 9 10 11 12 13 14 15 16 17 18 19 20 21 22 23 24 25 26
000
FTUS41 KGYX 222008 AAB
TAFPWM
TAF AMD
KPWM 222008Z 2220/2318 24008KT P6SM SCT060
     FM230000 20005KT P6SM BKN250
     FM230600 VRB03KT P6SM BKN070
     FM231300 19009KT P6SM BKN035 PROB30 2313/2316 5SM -SHRA OVC025=

USA.gov is the U.S. government's official web portal to all federal, state and local government web resources and services.